Castle Gate, Utah
Current Conditions -  °F | °C
As of 2:53 PM on Monday 22 Dec 2014 (Local Time) from KPUC Reporting Station
Clear Clear  
Wind Chill: 35°   Ceiling: Unl
Heat Index: 44°   Visibility: 10mi
Dew Point: 22°   Wind: 23mph
Humidity: 42%   Direction: 300°WNW
Pressure: 29.84"   Gusts: 37mph
Location:  39.7304°N, 110.917°W
Report Text: KPUC 222153Z AUTO 30020G32KT 10SM CLR 07/M06 A2984 RMK AO2 PK WND 32032/2147 SLP101 T00671056
Loading
Personal Weather Stations






























Interactive Weather Map New forecast layout! Learn more

10-Day Weather Forecast

Advertisements
Track Severe Weather on mobile